KESF

Esler Regional Airport

Alexandria, Louisiana, USA
METAR KESF 231622Z AUTO 16006KT 9SM SCT017 SCT024 BKN050 24/21 A3026 RMK AO2 T02390206
Observed Flight Rules
Feb-23 @ 16:22 UTC (19 minutes ago) Visual Flight Rules
Wind Visibility Clouds
160° at 6 knots 9 miles
  • Scattered at 1,700' AGL
  • Scattered at 2,400' AGL
  • Broken at 5,000' AGL
Temperatures Readings
Current 24°C / 75°F
Dewpoint 21°C / 70°F
Humidity 83%
Altimeter 30.26" Hg
Pressure 1025 hPa
Elevation 28
METAR KESF 231622Z AUTO 16006KT 9SM SCT017 SCT024 BKN050 24/21 A3026 RMK AO2 T02390206
Observed Flight Rules
Feb-23 @ 16:22 UTC
(19 minutes ago)
VFR
Wind Visibility
160° at 6 knots 9 miles
Clouds
  • Scattered at 1,700' AGL
  • Scattered at 2,400' AGL
  • Broken at 5,000' AGL
Temperature Dewpoint
24°C / 75°F 21°C / 70°F
Humidity Altimeter Pressure
83% 30.26" Hg 1025 hPa